createdAt,value
2019-01-21T00:01:24.603Z,26.87
2019-01-21T00:03:55.112Z,29.13
2019-01-21T00:06:25.620Z,27.87
2019-01-21T00:08:56.147Z,26.50
2019-01-21T00:11:26.566Z,27.90
2019-01-21T00:13:57.020Z,27.90
2019-01-21T00:16:27.442Z,27.33
2019-01-21T00:18:57.937Z,30.30
2019-01-21T00:21:28.354Z,30.07
2019-01-21T00:23:58.781Z,27.97
2019-01-21T00:26:29.275Z,28.70
2019-01-21T00:28:59.731Z,29.80
2019-01-21T00:31:30.122Z,29.07
2019-01-21T00:34:00.654Z,29.00
2019-01-21T00:36:31.091Z,27.80
2019-01-21T00:39:01.476Z,28.00
2019-01-21T00:41:31.910Z,26.53
2019-01-21T00:44:02.194Z,26.47
2019-01-21T00:46:51.742Z,27.17
2019-01-21T00:49:22.225Z,28.60
2019-01-21T00:51:52.653Z,26.80
2019-01-21T00:54:23.091Z,27.13
2019-01-21T00:56:53.523Z,29.53
2019-01-21T00:59:24.004Z,26.80
2019-01-21T01:01:54.433Z,28.13
2019-01-21T01:04:24.858Z,23.90
2019-01-21T01:06:55.293Z,24.70
2019-01-21T01:09:25.734Z,27.60
2019-01-21T01:11:56.213Z,28.37
2019-01-21T01:14:26.661Z,29.73
2019-01-21T01:16:57.216Z,27.90
2019-01-21T01:19:27.658Z,26.40
2019-01-21T01:21:58.115Z,29.60
2019-01-21T01:24:28.541Z,28.53
2019-01-21T01:26:59.020Z,28.97
2019-01-21T01:29:29.424Z,29.23
2019-01-21T01:31:59.915Z,26.73
2019-01-21T01:34:30.397Z,30.60
2019-01-21T01:37:00.840Z,30.63
2019-01-21T01:39:31.317Z,27.53
2019-01-21T01:42:01.773Z,28.47
2019-01-21T01:44:32.482Z,29.27
2019-01-21T01:47:02.917Z,29.13
2019-01-21T01:49:33.357Z,29.40
2019-01-21T01:52:03.818Z,30.17
2019-01-21T01:54:34.245Z,29.90
2019-01-21T01:57:05.094Z,29.57
2019-01-21T01:59:35.503Z,26.37
2019-01-21T02:02:06.038Z,27.57
2019-01-21T02:04:36.505Z,28.47
2019-01-21T02:07:07.167Z,29.03
2019-01-21T02:09:37.638Z,29.13
2019-01-21T02:12:08.070Z,26.33
2019-01-21T02:14:38.503Z,30.20
2019-01-21T02:17:08.983Z,26.17
2019-01-21T02:19:42.290Z,25.90
2019-01-21T02:22:15.195Z,29.47
2019-01-21T02:24:47.548Z,29.03
2019-01-21T02:27:54.883Z,28.20
2019-01-21T02:31:09.528Z,27.83
2019-01-21T02:34:30.664Z,25.33
2019-01-21T02:37:37.590Z,26.00
2019-01-21T02:40:39.475Z,27.30
2019-01-21T02:44:22.289Z,29.13
2019-01-21T02:48:07.562Z,26.87
2019-01-21T02:51:32.212Z,26.67
2019-01-21T02:54:48.363Z,25.27
2019-01-21T02:58:19.052Z,29.70
2019-01-21T03:01:36.517Z,26.03
2019-01-21T03:05:24.900Z,28.43
2019-01-21T03:08:30.737Z,29.00
2019-01-21T03:11:59.641Z,27.27
2019-01-21T03:15:31.701Z,31.30
2019-01-21T03:19:32.837Z,25.87
2019-01-21T03:22:54.545Z,27.73
2019-01-21T03:25:59.993Z,25.97
2019-01-21T03:29:10.224Z,28.20
2019-01-21T03:32:48.445Z,28.43
2019-01-21T03:35:56.304Z,25.40
2019-01-21T03:39:23.989Z,27.43
2019-01-21T03:42:33.870Z,26.70
2019-01-21T03:45:56.295Z,25.47
2019-01-21T03:48:51.288Z,25.40
2019-01-21T03:52:37.027Z,29.23
2019-01-21T03:55:13.590Z,27.60
2019-01-21T03:58:22.374Z,28.97
2019-01-21T04:01:21.328Z,25.77
2019-01-21T04:04:55.897Z,27.27
2019-01-21T04:08:15.355Z,25.83
2019-01-21T04:11:39.462Z,28.00
2019-01-21T04:15:07.928Z,27.30
2019-01-21T04:18:36.659Z,27.23
2019-01-21T04:21:54.727Z,24.83
2019-01-21T04:25:54.497Z,26.30
2019-01-21T04:29:09.129Z,26.70
2019-01-21T04:32:41.279Z,26.70
2019-01-21T04:35:40.796Z,25.87
2019-01-21T04:41:57.453Z,27.83
2019-01-21T04:45:21.834Z,24.87
2019-01-21T04:48:47.117Z,27.47
2019-01-21T04:52:13.070Z,24.83
2019-01-21T04:55:30.408Z,28.90
2019-01-21T04:59:09.489Z,25.40
2019-01-21T05:02:36.183Z,24.47
2019-01-21T05:05:51.561Z,25.93
2019-01-21T05:09:34.483Z,25.77
2019-01-21T05:13:03.471Z,24.60
2019-01-21T05:16:27.377Z,25.43
2019-01-21T05:19:52.664Z,26.90
2019-01-21T05:23:25.096Z,23.07
2019-01-21T05:26:34.952Z,26.63
2019-01-21T05:29:58.774Z,22.10
2019-01-21T05:33:24.190Z,23.30
2019-01-21T05:36:44.572Z,23.17
2019-01-21T05:40:06.792Z,26.03
2019-01-21T05:43:16.866Z,27.33
2019-01-21T05:46:32.122Z,27.20
2019-01-21T05:49:37.291Z,26.40
2019-01-21T05:53:17.125Z,28.40
2019-01-21T05:56:20.995Z,24.57
2019-01-21T06:00:02.029Z,26.07
2019-01-21T06:03:27.137Z,25.20
2019-01-21T06:06:41.922Z,23.53
2019-01-21T06:09:58.236Z,25.40
2019-01-21T06:13:27.430Z,24.13
2019-01-21T06:17:03.340Z,24.40
2019-01-21T06:20:25.026Z,25.80
2019-01-21T06:23:37.766Z,24.37
2019-01-21T06:27:13.241Z,25.03
2019-01-21T06:30:22.528Z,24.03
2019-01-21T06:34:01.862Z,23.33
2019-01-21T06:37:09.431Z,24.57
2019-01-21T06:40:53.780Z,25.00
2019-01-21T06:44:32.379Z,26.03
2019-01-21T06:48:17.423Z,24.70
2019-01-21T06:52:07.494Z,23.53
2019-01-21T06:55:18.237Z,23.53
2019-01-21T06:58:36.967Z,22.43
2019-01-21T07:01:50.167Z,23.77
2019-01-21T07:05:07.496Z,25.33
2019-01-21T07:08:37.943Z,26.07
2019-01-21T07:11:38.094Z,24.17
2019-01-21T07:14:54.872Z,28.50
2019-01-21T07:18:36.286Z,25.57
2019-01-21T07:21:40.951Z,27.33
2019-01-21T07:24:42.958Z,25.00
2019-01-21T07:27:58.589Z,24.40
2019-01-21T07:31:12.417Z,23.90
2019-01-21T07:34:48.149Z,25.11
2019-01-21T07:38:27.895Z,24.23
2019-01-21T07:41:30.242Z,23.70
2019-01-21T07:44:54.896Z,25.03
2019-01-21T07:48:48.292Z,24.87
2019-01-21T07:51:55.595Z,22.80
2019-01-21T07:55:38.558Z,22.83
2019-01-21T07:59:27.797Z,26.83
2019-01-21T08:02:51.493Z,27.70
2019-01-21T08:06:03.556Z,28.33
2019-01-21T08:09:42.576Z,31.90
2019-01-21T08:12:54.365Z,28.00
2019-01-21T08:16:06.954Z,24.23
2019-01-21T08:19:35.547Z,29.80
2019-01-21T08:22:54.985Z,31.50
2019-01-21T08:26:15.461Z,27.10
2019-01-21T08:30:07.152Z,25.97
2019-01-21T08:33:21.312Z,28.60
2019-01-21T08:36:27.965Z,27.13
2019-01-21T08:40:04.830Z,23.27
2019-01-21T08:43:48.801Z,27.43
2019-01-21T08:47:28.490Z,26.70
2019-01-21T08:50:50.600Z,26.50
2019-01-21T08:53:58.975Z,21.30
2019-01-21T08:57:11.692Z,26.07
2019-01-21T09:00:26.823Z,23.93
2019-01-21T09:04:01.972Z,25.50
2019-01-21T09:07:25.703Z,23.93
2019-01-21T09:10:52.626Z,25.93
2019-01-21T09:14:07.666Z,26.23
2019-01-21T09:17:16.545Z,22.97
2019-01-21T09:20:36.808Z,23.33
2019-01-21T09:24:11.474Z,21.93
2019-01-21T09:27:24.657Z,21.43
2019-01-21T09:30:52.133Z,23.03
2019-01-21T09:34:21.253Z,24.13
2019-01-21T09:38:01.004Z,22.23
2019-01-21T09:41:08.268Z,24.73
2019-01-21T09:44:29.151Z,25.70
2019-01-21T09:46:57.188Z,23.83
2019-01-21T09:49:25.155Z,23.77
2019-01-21T09:52:18.408Z,26.13
2019-01-21T09:54:50.034Z,23.77
2019-01-21T09:57:27.833Z,22.63
2019-01-21T10:00:04.857Z,24.67
2019-01-21T10:02:51.908Z,23.93
2019-01-21T10:05:25.200Z,24.33
2019-01-21T10:08:30.427Z,25.87
2019-01-21T10:12:03.500Z,25.40
2019-01-21T10:15:08.808Z,21.73
2019-01-21T10:18:17.084Z,25.33
2019-01-21T10:22:00.344Z,23.90
2019-01-21T10:25:26.564Z,24.50
2019-01-21T10:29:07.921Z,23.80
2019-01-21T10:32:38.755Z,24.37
2019-01-21T10:35:51.296Z,24.60
2019-01-21T10:39:19.228Z,23.17
2019-01-21T10:42:45.418Z,23.00
2019-01-21T10:46:31.243Z,23.30
2019-01-21T10:50:00.628Z,20.73
2019-01-21T10:53:39.452Z,20.60
2019-01-21T10:57:09.985Z,18.83
2019-01-21T11:00:30.833Z,22.00
2019-01-21T11:04:03.839Z,20.40
2019-01-21T11:07:27.576Z,21.47
2019-01-21T11:10:40.656Z,22.17
2019-01-21T11:14:16.327Z,20.00
2019-01-21T11:17:23.337Z,22.50
2019-01-21T11:20:38.264Z,21.03
2019-01-21T11:23:55.607Z,21.70
2019-01-21T11:27:34.377Z,24.53
2019-01-21T11:30:53.470Z,27.90
2019-01-21T11:34:19.248Z,23.33
2019-01-21T11:38:08.440Z,27.13
2019-01-21T11:41:16.362Z,24.30
2019-01-21T11:44:36.170Z,24.10
2019-01-21T11:47:46.865Z,24.33
2019-01-21T11:51:22.148Z,21.73
2019-01-21T11:54:33.969Z,20.30
2019-01-21T11:58:04.657Z,22.40
2019-01-21T12:01:26.169Z,22.90
2019-01-21T12:04:35.051Z,20.30
2019-01-21T12:07:52.609Z,22.77
2019-01-21T12:11:18.399Z,21.57
2019-01-21T12:14:52.070Z,19.63
2019-01-21T12:18:25.440Z,21.77
2019-01-21T12:21:38.975Z,23.83
2019-01-21T12:24:53.031Z,20.23
2019-01-21T12:28:40.052Z,24.73
2019-01-21T12:31:38.638Z,22.30
2019-01-21T12:35:06.347Z,20.20
2019-01-21T12:38:11.085Z,25.00
2019-01-21T12:41:37.712Z,19.70
2019-01-21T12:44:42.367Z,20.20
2019-01-21T12:47:50.138Z,21.03
2019-01-21T12:51:05.292Z,19.17
2019-01-21T12:54:38.086Z,21.13
2019-01-21T12:58:08.464Z,19.50
2019-01-21T13:01:23.600Z,19.80
2019-01-21T13:04:55.231Z,19.60
2019-01-21T13:08:16.003Z,17.57
2019-01-21T13:11:32.992Z,18.10
2019-01-21T13:14:50.307Z,19.30
2019-01-21T13:18:19.408Z,19.47
2019-01-21T13:21:53.954Z,18.90
2019-01-21T13:25:41.408Z,16.60
2019-01-21T13:29:01.052Z,18.20
2019-01-21T13:32:42.361Z,18.57
2019-01-21T13:35:52.189Z,17.47
2019-01-21T13:39:47.518Z,18.93
2019-01-21T13:42:46.830Z,15.67
2019-01-21T13:46:09.556Z,16.50
2019-01-21T13:49:19.843Z,16.53
2019-01-21T13:53:01.783Z,17.67
2019-01-21T13:56:00.534Z,16.07
2019-01-21T13:59:30.595Z,16.90
2019-01-21T14:02:23.459Z,16.33
2019-01-21T14:05:22.008Z,15.83
2019-01-21T14:08:44.853Z,17.07
2019-01-21T14:12:09.091Z,17.83
2019-01-21T14:15:32.457Z,15.43
2019-01-21T14:18:27.620Z,15.13
2019-01-21T14:21:28.587Z,17.03
2019-01-21T14:25:04.503Z,14.17
2019-01-21T14:28:00.004Z,15.83
2019-01-21T14:31:34.961Z,16.57
2019-01-21T14:35:05.651Z,17.40
2019-01-21T14:38:17.946Z,16.63
2019-01-21T14:42:06.857Z,16.77
2019-01-21T14:45:42.075Z,16.57
2019-01-21T14:49:21.634Z,18.30
2019-01-21T14:52:50.045Z,17.60
2019-01-21T14:56:10.996Z,16.57
2019-01-21T14:59:38.362Z,18.87
2019-01-21T15:03:22.392Z,16.63
2019-01-21T15:06:29.517Z,16.37
2019-01-21T15:09:46.337Z,16.20
2019-01-21T15:13:05.198Z,16.13
2019-01-21T15:16:07.736Z,14.50
2019-01-21T15:19:07.681Z,13.33
2019-01-21T15:22:27.508Z,14.07
2019-01-21T15:26:05.455Z,12.30
2019-01-21T15:29:22.446Z,13.73
2019-01-21T15:32:43.142Z,13.97
2019-01-21T15:35:50.451Z,15.20
2019-01-21T15:39:27.625Z,14.57
2019-01-21T15:43:08.096Z,14.33
2019-01-21T15:46:25.350Z,13.80
2019-01-21T15:49:34.490Z,12.80
2019-01-21T15:52:38.089Z,12.87
2019-01-21T15:55:27.142Z,13.07
2019-01-21T15:58:48.880Z,13.47
2019-01-21T16:02:24.756Z,15.20
2019-01-21T16:05:31.303Z,16.00
2019-01-21T16:08:32.499Z,16.13
2019-01-21T16:12:08.168Z,14.37
2019-01-21T16:15:49.553Z,15.20
2019-01-21T16:18:52.868Z,17.10
2019-01-21T16:22:19.693Z,16.80
2019-01-21T16:25:51.540Z,17.43
2019-01-21T16:29:17.176Z,16.23
2019-01-21T16:32:30.846Z,15.80
2019-01-21T16:35:46.195Z,15.17
2019-01-21T16:39:02.401Z,17.20
2019-01-21T16:42:08.655Z,16.10
2019-01-21T16:44:39.191Z,14.97
2019-01-21T16:47:09.664Z,16.20
2019-01-21T16:49:40.191Z,16.67
2019-01-21T16:52:10.677Z,15.10
2019-01-21T16:54:41.320Z,16.53
2019-01-21T16:57:11.942Z,16.43
2019-01-21T16:59:42.442Z,14.30
2019-01-21T17:02:12.933Z,16.67
2019-01-21T17:04:43.499Z,15.60
2019-01-21T17:07:14.159Z,14.67
2019-01-21T17:09:44.680Z,16.20
2019-01-21T17:12:15.236Z,17.50
2019-01-21T17:14:45.822Z,15.33
2019-01-21T17:17:16.326Z,16.63
2019-01-21T17:19:47.165Z,16.43
2019-01-21T17:22:17.648Z,15.53
2019-01-21T17:24:48.237Z,15.00
2019-01-21T17:27:18.835Z,15.07
2019-01-21T17:29:49.372Z,16.27
2019-01-21T17:32:19.971Z,17.40
2019-01-21T17:34:50.504Z,17.90
2019-01-21T17:37:21.045Z,16.33
2019-01-21T17:39:51.645Z,18.03
2019-01-21T17:42:22.140Z,18.73
2019-01-21T17:44:55.132Z,18.20
2019-01-21T17:47:25.586Z,19.87
2019-01-21T17:49:56.189Z,21.13
2019-01-21T17:52:28.900Z,21.90
2019-01-21T17:54:59.368Z,22.10
2019-01-21T17:57:30.323Z,23.47
2019-01-21T18:00:01.083Z,23.00
2019-01-21T18:02:31.574Z,24.67
2019-01-21T18:05:02.144Z,22.80
2019-01-21T18:07:32.685Z,22.63
2019-01-21T18:10:03.191Z,23.73
2019-01-21T18:12:33.913Z,23.20
2019-01-21T18:15:05.152Z,22.47
2019-01-21T18:17:35.634Z,24.67
2019-01-21T18:20:13.095Z,22.23
2019-01-21T18:22:43.527Z,27.27
2019-01-21T18:25:14.514Z,22.03
2019-01-21T18:27:44.985Z,22.57
2019-01-21T18:30:23.309Z,25.37
2019-01-21T18:32:53.782Z,25.77
2019-01-21T18:35:24.379Z,23.80
2019-01-21T18:37:55.233Z,25.90
2019-01-21T18:40:25.799Z,24.30
2019-01-21T18:42:56.373Z,26.23
2019-01-21T18:45:28.697Z,27.63
2019-01-21T18:47:59.195Z,27.27
2019-01-21T18:50:29.692Z,25.47
2019-01-21T18:53:00.228Z,24.23
2019-01-21T18:55:30.721Z,25.23
2019-01-21T18:58:01.190Z,23.97
2019-01-21T19:00:32.189Z,27.87
2019-01-21T19:03:02.734Z,25.33
2019-01-21T19:05:33.238Z,26.60
2019-01-21T19:08:03.845Z,27.07
2019-01-21T19:10:34.547Z,25.63
2019-01-21T19:13:05.082Z,24.50
2019-01-21T19:15:35.623Z,23.97
2019-01-21T19:18:06.750Z,25.50
2019-01-21T19:20:37.267Z,23.67
2019-01-21T19:23:07.775Z,24.00
2019-01-21T19:25:38.344Z,23.73
2019-01-21T19:28:08.826Z,24.20
2019-01-21T19:30:39.516Z,26.17
2019-01-21T19:33:10.017Z,22.40
2019-01-21T19:35:48.142Z,25.10
2019-01-21T19:38:18.575Z,24.60
2019-01-21T19:40:51.210Z,24.27
2019-01-21T19:43:24.513Z,23.33
2019-01-21T19:45:57.336Z,26.57
2019-01-21T19:48:28.360Z,27.90
2019-01-21T19:50:59.123Z,24.20
2019-01-21T19:53:29.865Z,21.43
2019-01-21T19:56:00.442Z,24.30
2019-01-21T19:58:30.904Z,22.63
2019-01-21T20:01:01.383Z,23.73
2019-01-21T20:03:31.894Z,25.33
2019-01-21T20:06:02.610Z,25.10
2019-01-21T20:08:33.163Z,22.97
2019-01-21T20:11:03.621Z,24.77
2019-01-21T20:13:34.068Z,23.63
2019-01-21T20:16:04.639Z,22.40
2019-01-21T20:18:35.116Z,23.90
2019-01-21T20:21:05.630Z,23.57
2019-01-21T20:23:36.080Z,24.93
2019-01-21T20:26:06.523Z,23.90
2019-01-21T20:28:37.023Z,26.90
2019-01-21T20:31:07.558Z,24.80
2019-01-21T20:33:38.022Z,23.77
2019-01-21T20:36:08.563Z,24.20
2019-01-21T20:38:39.053Z,25.03
2019-01-21T20:41:09.539Z,23.43
2019-01-21T20:43:39.971Z,26.10
2019-01-21T20:46:10.479Z,28.40
2019-01-21T20:48:40.901Z,37.20
2019-01-21T20:51:11.442Z,34.90
2019-01-21T20:53:41.847Z,30.97
2019-01-21T20:56:12.300Z,28.30
2019-01-21T20:58:42.863Z,28.77
2019-01-21T21:01:13.336Z,26.10
2019-01-21T21:03:43.800Z,28.33
2019-01-21T21:06:14.493Z,28.73
2019-01-21T21:08:44.986Z,30.93
2019-01-21T21:11:15.574Z,29.23
2019-01-21T21:13:46.044Z,28.23
2019-01-21T21:16:16.574Z,27.43
2019-01-21T21:18:47.067Z,29.23
2019-01-21T21:21:17.615Z,27.43
2019-01-21T21:23:48.134Z,28.43
2019-01-21T21:26:18.750Z,27.87
2019-01-21T21:28:49.201Z,27.77
2019-01-21T21:31:19.913Z,27.53
2019-01-21T21:33:50.513Z,26.50
2019-01-21T21:36:21.022Z,28.33
2019-01-21T21:38:51.650Z,25.47
2019-01-21T21:41:22.127Z,27.10
2019-01-21T21:43:52.698Z,24.93
2019-01-21T21:46:23.228Z,27.30
2019-01-21T21:48:53.725Z,28.27
2019-01-21T21:51:24.210Z,27.17
2019-01-21T21:53:54.667Z,28.23
2019-01-21T21:56:25.152Z,27.43
2019-01-21T21:58:55.645Z,27.20
2019-01-21T22:01:26.129Z,26.37
2019-01-21T22:03:56.651Z,24.60
2019-01-21T22:06:27.127Z,28.33
2019-01-21T22:08:57.612Z,27.37
2019-01-21T22:11:28.092Z,26.97
2019-01-21T22:13:58.731Z,26.10
2019-01-21T22:16:29.204Z,26.03
2019-01-21T22:18:59.689Z,25.80
2019-01-21T22:21:30.166Z,25.50
2019-01-21T22:24:00.604Z,23.83
2019-01-21T22:26:31.175Z,24.27
2019-01-21T22:29:01.637Z,24.00
2019-01-21T22:31:32.124Z,27.53
2019-01-21T22:34:02.758Z,24.10
2019-01-21T22:36:33.280Z,26.90
2019-01-21T22:39:05.597Z,24.57
2019-01-21T22:41:36.056Z,25.47
2019-01-21T22:44:06.496Z,24.83
2019-01-21T22:46:36.979Z,25.20
2019-01-21T22:49:07.686Z,26.47
2019-01-21T22:51:38.130Z,26.07
2019-01-21T22:54:08.532Z,25.83
2019-01-21T22:56:38.976Z,24.90
2019-01-21T22:59:09.457Z,23.37
2019-01-21T23:01:39.988Z,28.87
2019-01-21T23:04:10.856Z,23.87
2019-01-21T23:06:41.304Z,25.37
2019-01-21T23:09:11.860Z,25.23
2019-01-21T23:11:42.280Z,24.27
2019-01-21T23:14:12.751Z,25.20
2019-01-21T23:16:43.211Z,24.63
2019-01-21T23:19:13.717Z,25.67
2019-01-21T23:21:44.125Z,23.67
2019-01-21T23:24:16.704Z,25.17
2019-01-21T23:26:47.180Z,28.17
2019-01-21T23:29:17.698Z,23.43
2019-01-21T23:31:48.110Z,25.33
2019-01-21T23:34:18.614Z,22.93
2019-01-21T23:36:49.357Z,25.30
2019-01-21T23:39:19.795Z,26.03
2019-01-21T23:41:50.261Z,25.77
2019-01-21T23:44:20.731Z,24.70
2019-01-21T23:46:51.149Z,25.30
2019-01-21T23:49:21.644Z,24.67
2019-01-21T23:51:52.048Z,24.20
2019-01-21T23:54:22.509Z,23.73
2019-01-21T23:56:53.005Z,23.83
2019-01-21T23:59:23.566Z,24.60
